Sevilla, España

12:34 PM CEST en Agosto 03, 2015 (GMT +0200)
San Pablo | | Change Station
CLOSE
Current Station
Aeropuerto
Location: Sevilla,
Altura: 102 ft
Estaciones meteorológicas cercanas

Alt 102 ft 37.42 °N, 5.89 °W | Updated 34 minutes ago

Partly Cloudy
Parcialmente nublado
88 ° F
Sensación térmica 90 ° F
N
4
Viento Variable Viento desde SO

Hoy
Alta -- | Baja -- ° F
--% Posibilidad de precipitaciones
Ayer
Alta -- | Baja -- ° F
Precip. -- pul
7:29 AM 9:29 PM
Gibosa menguante, 88% visible
Presión 29.98 pul
Visibilidad 6.2 Millas
Nubes Baja 4000 ft
Índice de calor 90 ° F
Punto de rocío 66 ° F
Humedad 49%
Precipitaciones 0.00 pul
Espesor de la nieve No disponible.
UV 8 de una escala de 12
Polen No disponible.
Calidad del aire No disponible.
Flu Activity No disponible.
METAR LEZL 031000Z 23003KT 9999 FEW040 31/19 Q1015 NOSIG

More Conditions Fewer Conditions

Presión 29.98 pul
Visibilidad 6.2 Millas
Nubes Baja 4000 ft
Índice de calor 90 ° F
Punto de rocío 66 ° F
Humedad 49%
Precipitaciones 0.00 pul
Espesor de la nieve No disponible.
UV 8 de una escala de 12
Polen No disponible.
Calidad del aire No disponible.
Flu Activity No disponible.
METAR LEZL 031000Z 23003KT 9999 FEW040 31/19 Q1015 NOSIG

More Conditions Fewer Conditions

10-Day Weather Forecast

×

Almanac

Astronomía

Aug. 03, 2015 Salida Puesta
Hora real
Crepúsculo civil
Crepúsculo náutico
Crepúsculo astronómico
Luna
Horas de luz
Horas de luz
Tomorrow will be .
, % of the Moon is Illuminated

Extremos de hoy

Máximos del país Bajas del país

Community

WunderPhotos

Upload Photos

1,843,610 ¡fotos cargadas!

WunderBlogs® & News

Nearby

Calidad del aire

  Calidad del aire Índice AQ Contaminante
Not available.

Grosos de nieve

Estación Profundido Altura

Actividad de terremotos

Ciudad Distance Mag. Tiempo y dato
Magnitud mínima muestra es 2,5.

Temperaturas de aguas costeras

Lugar Temperatura

Stations

Estaciones meteorológicas cercanas

Ubicación de la estación Temp. Vientos helados Punto de rocío Humedad Viento Precip. Alt Actualizado Tipo